sensor_id;sensor_type;location;lat;lon;timestamp;temperature;humidity
29551;DHT22;16488;52.396;10.696;2022-09-20T00:01:11;9.20;99.90
29551;DHT22;16488;52.396;10.696;2022-09-20T00:03:39;9.20;99.90
29551;DHT22;16488;52.396;10.696;2022-09-20T00:06:08;9.10;99.90
29551;DHT22;16488;52.396;10.696;2022-09-20T00:08:34;9.10;99.90
29551;DHT22;16488;52.396;10.696;2022-09-20T00:11:11;9.20;99.90
29551;DHT22;16488;52.396;10.696;2022-09-20T00:13:40;9.20;99.90
29551;DHT22;16488;52.396;10.696;2022-09-20T00:16:09;9.30;99.90
29551;DHT22;16488;52.396;10.696;2022-09-20T00:18:35;9.30;99.90
29551;DHT22;16488;52.396;10.696;2022-09-20T00:21:00;9.30;99.90
29551;DHT22;16488;52.396;10.696;2022-09-20T00:23:26;9.20;99.90
29551;DHT22;16488;52.396;10.696;2022-09-20T00:25:58;9.30;99.90
29551;DHT22;16488;52.396;10.696;2022-09-20T00:28:25;9.30;99.90
29551;DHT22;16488;52.396;10.696;2022-09-20T00:30:52;9.20;99.90
29551;DHT22;16488;52.396;10.696;2022-09-20T00:33:18;9.10;99.90
29551;DHT22;16488;52.396;10.696;2022-09-20T00:35:45;9.10;99.90
29551;DHT22;16488;52.396;10.696;2022-09-20T00:38:10;9.00;99.90
29551;DHT22;16488;52.396;10.696;2022-09-20T00:40:38;9.00;99.90
29551;DHT22;16488;52.396;10.696;2022-09-20T00:43:04;9.00;99.90
29551;DHT22;16488;52.396;10.696;2022-09-20T00:45:30;8.90;99.90
29551;DHT22;16488;52.396;10.696;2022-09-20T00:48:11;9.00;99.90
29551;DHT22;16488;52.396;10.696;2022-09-20T00:50:48;9.00;99.90
29551;DHT22;16488;52.396;10.696;2022-09-20T00:53:29;9.00;99.90
29551;DHT22;16488;52.396;10.696;2022-09-20T00:55:59;9.00;99.90
29551;DHT22;16488;52.396;10.696;2022-09-20T00:58:27;8.90;99.90
29551;DHT22;16488;52.396;10.696;2022-09-20T01:00:56;8.90;99.90
29551;DHT22;16488;52.396;10.696;2022-09-20T01:03:24;8.90;99.90
29551;DHT22;16488;52.396;10.696;2022-09-20T01:05:53;8.90;99.90
29551;DHT22;16488;52.396;10.696;2022-09-20T01:08:19;8.90;99.90
29551;DHT22;16488;52.396;10.696;2022-09-20T01:10:48;8.90;99.90
29551;DHT22;16488;52.396;10.696;2022-09-20T01:13:14;8.90;99.90
29551;DHT22;16488;52.396;10.696;2022-09-20T01:15:41;9.00;99.90
29551;DHT22;16488;52.396;10.696;2022-09-20T01:18:08;9.00;99.90
29551;DHT22;16488;52.396;10.696;2022-09-20T01:20:37;9.00;99.90
29551;DHT22;16488;52.396;10.696;2022-09-20T01:23:44;9.10;99.90
29551;DHT22;16488;52.396;10.696;2022-09-20T01:31:35;9.20;99.90
29551;DHT22;16488;52.396;10.696;2022-09-20T01:34:11;9.20;99.90
29551;DHT22;16488;52.396;10.696;2022-09-20T01:39:15;9.20;99.90
29551;DHT22;16488;52.396;10.696;2022-09-20T01:41:48;9.30;99.90
29551;DHT22;16488;52.396;10.696;2022-09-20T01:44:29;9.40;99.90
29551;DHT22;16488;52.396;10.696;2022-09-20T01:47:49;9.50;99.90
29551;DHT22;16488;52.396;10.696;2022-09-20T01:58:46;9.60;99.90
29551;DHT22;16488;52.396;10.696;2022-09-20T02:04:58;9.70;99.90
29551;DHT22;16488;52.396;10.696;2022-09-20T02:07:43;9.70;99.90
29551;DHT22;16488;52.396;10.696;2022-09-20T02:24:25;9.90;99.90
29551;DHT22;16488;52.396;10.696;2022-09-20T02:35:41;9.90;99.90
29551;DHT22;16488;52.396;10.696;2022-09-20T02:38:14;9.90;99.90
29551;DHT22;16488;52.396;10.696;2022-09-20T02:41:04;9.90;99.90
29551;DHT22;16488;52.396;10.696;2022-09-20T02:50:04;9.90;99.90
29551;DHT22;16488;52.396;10.696;2022-09-20T02:53:06;9.90;99.90
29551;DHT22;16488;52.396;10.696;2022-09-20T03:07:01;9.80;99.90
29551;DHT22;16488;52.396;10.696;2022-09-20T03:09:53;9.90;99.90
29551;DHT22;16488;52.396;10.696;2022-09-20T03:18:42;9.80;99.90
29551;DHT22;16488;52.396;10.696;2022-09-20T03:24:18;9.80;99.90
29551;DHT22;16488;52.396;10.696;2022-09-20T03:27:17;9.80;99.90
29551;DHT22;16488;52.396;10.696;2022-09-20T03:32:53;9.90;99.90
29551;DHT22;16488;52.396;10.696;2022-09-20T03:41:24;9.80;99.90
29551;DHT22;16488;52.396;10.696;2022-09-20T03:46:46;9.80;99.90
29551;DHT22;16488;52.396;10.696;2022-09-20T03:52:15;9.80;99.90
29551;DHT22;16488;52.396;10.696;2022-09-20T03:57:52;9.80;99.90
29551;DHT22;16488;52.396;10.696;2022-09-20T04:03:20;9.70;99.90
29551;DHT22;16488;52.396;10.696;2022-09-20T04:08:55;9.70;99.90
29551;DHT22;16488;52.396;10.696;2022-09-20T04:12:10;9.80;99.90
29551;DHT22;16488;52.396;10.696;2022-09-20T04:17:56;9.80;99.90
29551;DHT22;16488;52.396;10.696;2022-09-20T04:22:55;9.70;99.90
29551;DHT22;16488;52.396;10.696;2022-09-20T04:25:28;9.80;99.90
29551;DHT22;16488;52.396;10.696;2022-09-20T04:28:03;9.70;99.90
29551;DHT22;16488;52.396;10.696;2022-09-20T04:30:34;9.80;99.90
29551;DHT22;16488;52.396;10.696;2022-09-20T04:33:19;9.80;99.90
29551;DHT22;16488;52.396;10.696;2022-09-20T04:39:22;9.80;99.90
29551;DHT22;16488;52.396;10.696;2022-09-20T04:53:50;9.70;99.90
29551;DHT22;16488;52.396;10.696;2022-09-20T04:59:14;9.70;99.90
29551;DHT22;16488;52.396;10.696;2022-09-20T05:02:14;9.70;99.90
29551;DHT22;16488;52.396;10.696;2022-09-20T05:32:16;9.60;99.90
29551;DHT22;16488;52.396;10.696;2022-09-20T05:34:50;9.60;99.90
29551;DHT22;16488;52.396;10.696;2022-09-20T05:37:36;9.70;99.90
29551;DHT22;16488;52.396;10.696;2022-09-20T05:43:12;9.70;99.90
29551;DHT22;16488;52.396;10.696;2022-09-20T05:48:58;9.70;99.90
29551;DHT22;16488;52.396;10.696;2022-09-20T05:54:34;9.70;99.90
29551;DHT22;16488;52.396;10.696;2022-09-20T05:57:31;9.70;99.90
29551;DHT22;16488;52.396;10.696;2022-09-20T06:05:18;9.80;99.90
29551;DHT22;16488;52.396;10.696;2022-09-20T06:07:54;9.80;99.90
29551;DHT22;16488;52.396;10.696;2022-09-20T06:10:50;9.70;99.90
29551;DHT22;16488;52.396;10.696;2022-09-20T06:15:59;9.80;99.90
29551;DHT22;16488;52.396;10.696;2022-09-20T06:18:30;9.70;99.90
29551;DHT22;16488;52.396;10.696;2022-09-20T06:23:41;9.80;99.90
29551;DHT22;16488;52.396;10.696;2022-09-20T06:26:14;9.70;99.90
29551;DHT22;16488;52.396;10.696;2022-09-20T06:28:45;9.80;99.90
29551;DHT22;16488;52.396;10.696;2022-09-20T06:31:13;9.80;99.90
29551;DHT22;16488;52.396;10.696;2022-09-20T06:34:10;9.80;99.90
29551;DHT22;16488;52.396;10.696;2022-09-20T06:36:39;9.80;99.90
29551;DHT22;16488;52.396;10.696;2022-09-20T06:39:58;9.80;99.90
29551;DHT22;16488;52.396;10.696;2022-09-20T06:42:45;9.80;99.90
29551;DHT22;16488;52.396;10.696;2022-09-20T06:45:12;9.90;99.90
29551;DHT22;16488;52.396;10.696;2022-09-20T06:47:38;9.80;99.90
29551;DHT22;16488;52.396;10.696;2022-09-20T06:50:05;9.80;99.90
29551;DHT22;16488;52.396;10.696;2022-09-20T06:52:31;9.80;99.90
29551;DHT22;16488;52.396;10.696;2022-09-20T06:55:02;9.80;99.90
29551;DHT22;16488;52.396;10.696;2022-09-20T06:57:36;9.80;99.90
29551;DHT22;16488;52.396;10.696;2022-09-20T07:00:06;9.80;99.90
29551;DHT22;16488;52.396;10.696;2022-09-20T07:02:35;9.90;99.90
29551;DHT22;16488;52.396;10.696;2022-09-20T07:05:01;9.80;99.90
29551;DHT22;16488;52.396;10.696;2022-09-20T07:07:26;9.80;99.90
29551;DHT22;16488;52.396;10.696;2022-09-20T07:09:52;9.90;99.90
29551;DHT22;16488;52.396;10.696;2022-09-20T07:12:18;9.90;99.90
29551;DHT22;16488;52.396;10.696;2022-09-20T07:14:44;9.90;99.90
29551;DHT22;16488;52.396;10.696;2022-09-20T07:17:10;9.90;99.90
29551;DHT22;16488;52.396;10.696;2022-09-20T07:19:36;10.00;99.90
29551;DHT22;16488;52.396;10.696;2022-09-20T07:22:02;10.00;99.90
29551;DHT22;16488;52.396;10.696;2022-09-20T07:24:28;10.00;99.90
29551;DHT22;16488;52.396;10.696;2022-09-20T07:26:58;10.00;99.90
29551;DHT22;16488;52.396;10.696;2022-09-20T07:29:24;10.00;99.90
29551;DHT22;16488;52.396;10.696;2022-09-20T07:31:54;10.00;99.90
29551;DHT22;16488;52.396;10.696;2022-09-20T07:34:20;9.90;99.90
29551;DHT22;16488;52.396;10.696;2022-09-20T07:36:47;10.00;99.90
29551;DHT22;16488;52.396;10.696;2022-09-20T07:39:12;10.00;99.90
29551;DHT22;16488;52.396;10.696;2022-09-20T07:41:38;10.00;99.90
29551;DHT22;16488;52.396;10.696;2022-09-20T07:44:04;10.00;99.90
29551;DHT22;16488;52.396;10.696;2022-09-20T07:46:57;10.00;99.90
29551;DHT22;16488;52.396;10.696;2022-09-20T07:49:24;10.10;99.90
29551;DHT22;16488;52.396;10.696;2022-09-20T07:51:52;10.10;99.90
29551;DHT22;16488;52.396;10.696;2022-09-20T07:54:18;10.10;99.90
29551;DHT22;16488;52.396;10.696;2022-09-20T07:56:45;10.10;99.90
29551;DHT22;16488;52.396;10.696;2022-09-20T07:59:12;10.20;99.90
29551;DHT22;16488;52.396;10.696;2022-09-20T08:01:39;10.20;99.90
29551;DHT22;16488;52.396;10.696;2022-09-20T08:04:06;10.20;99.90
29551;DHT22;16488;52.396;10.696;2022-09-20T08:06:39;10.30;99.90
29551;DHT22;16488;52.396;10.696;2022-09-20T08:09:06;10.40;99.90
29551;DHT22;16488;52.396;10.696;2022-09-20T08:11:32;10.40;99.90
29551;DHT22;16488;52.396;10.696;2022-09-20T08:13:59;10.40;99.90
29551;DHT22;16488;52.396;10.696;2022-09-20T08:16:25;10.40;99.90
29551;DHT22;16488;52.396;10.696;2022-09-20T08:18:53;10.30;99.90
29551;DHT22;16488;52.396;10.696;2022-09-20T08:21:24;10.40;99.90
29551;DHT22;16488;52.396;10.696;2022-09-20T08:23:50;10.40;99.90
29551;DHT22;16488;52.396;10.696;2022-09-20T08:26:20;10.50;99.90
29551;DHT22;16488;52.396;10.696;2022-09-20T08:28:51;10.40;99.90
29551;DHT22;16488;52.396;10.696;2022-09-20T08:31:19;10.50;99.90
29551;DHT22;16488;52.396;10.696;2022-09-20T08:33:46;10.50;99.90
29551;DHT22;16488;52.396;10.696;2022-09-20T08:36:15;10.50;99.90
29551;DHT22;16488;52.396;10.696;2022-09-20T08:38:41;10.50;99.90
29551;DHT22;16488;52.396;10.696;2022-09-20T08:43:50;10.50;99.90
29551;DHT22;16488;52.396;10.696;2022-09-20T08:46:22;10.40;99.90
29551;DHT22;16488;52.396;10.696;2022-09-20T08:48:51;10.40;99.90
29551;DHT22;16488;52.396;10.696;2022-09-20T08:51:18;10.50;99.90
29551;DHT22;16488;52.396;10.696;2022-09-20T08:53:48;10.50;99.90
29551;DHT22;16488;52.396;10.696;2022-09-20T08:56:17;10.60;99.90
29551;DHT22;16488;52.396;10.696;2022-09-20T08:58:43;10.60;99.90
29551;DHT22;16488;52.396;10.696;2022-09-20T09:01:24;10.60;99.90
29551;DHT22;16488;52.396;10.696;2022-09-20T09:03:51;10.60;99.90
29551;DHT22;16488;52.396;10.696;2022-09-20T09:06:19;10.70;99.90
29551;DHT22;16488;52.396;10.696;2022-09-20T09:08:49;10.70;99.90
29551;DHT22;16488;52.396;10.696;2022-09-20T09:11:22;10.70;99.90
29551;DHT22;16488;52.396;10.696;2022-09-20T09:14:11;10.70;99.90
29551;DHT22;16488;52.396;10.696;2022-09-20T09:16:58;10.70;99.90
29551;DHT22;16488;52.396;10.696;2022-09-20T09:19:41;10.70;99.90
29551;DHT22;16488;52.396;10.696;2022-09-20T09:22:16;10.70;99.90
29551;DHT22;16488;52.396;10.696;2022-09-20T09:24:42;10.80;99.90
29551;DHT22;16488;52.396;10.696;2022-09-20T09:27:18;10.80;99.90
29551;DHT22;16488;52.396;10.696;2022-09-20T09:29:52;10.90;99.90
29551;DHT22;16488;52.396;10.696;2022-09-20T09:32:23;10.90;99.90
29551;DHT22;16488;52.396;10.696;2022-09-20T09:34:50;10.90;99.90
29551;DHT22;16488;52.396;10.696;2022-09-20T09:37:28;10.90;99.90
29551;DHT22;16488;52.396;10.696;2022-09-20T09:40:12;11.00;99.90
29551;DHT22;16488;52.396;10.696;2022-09-20T09:42:51;11.00;99.90
29551;DHT22;16488;52.396;10.696;2022-09-20T09:45:29;11.10;99.90
29551;DHT22;16488;52.396;10.696;2022-09-20T09:47:57;11.00;99.90
29551;DHT22;16488;52.396;10.696;2022-09-20T09:50:30;11.00;99.90
29551;DHT22;16488;52.396;10.696;2022-09-20T09:52:57;11.10;99.90
29551;DHT22;16488;52.396;10.696;2022-09-20T09:55:32;11.10;99.90
29551;DHT22;16488;52.396;10.696;2022-09-20T09:58:05;11.20;99.90
29551;DHT22;16488;52.396;10.696;2022-09-20T10:00:38;11.20;99.90
29551;DHT22;16488;52.396;10.696;2022-09-20T10:03:31;11.20;99.90
29551;DHT22;16488;52.396;10.696;2022-09-20T10:08:52;11.50;99.90
29551;DHT22;16488;52.396;10.696;2022-09-20T10:11:48;11.60;99.90
29551;DHT22;16488;52.396;10.696;2022-09-20T10:20:14;11.80;99.90
29551;DHT22;16488;52.396;10.696;2022-09-20T10:28:26;12.10;99.90
29551;DHT22;16488;52.396;10.696;2022-09-20T10:31:16;12.10;99.90
29551;DHT22;16488;52.396;10.696;2022-09-20T10:41:44;12.90;99.90
29551;DHT22;16488;52.396;10.696;2022-09-20T10:45:06;13.00;99.90
29551;DHT22;16488;52.396;10.696;2022-09-20T10:47:55;13.00;99.90
29551;DHT22;16488;52.396;10.696;2022-09-20T10:51:20;13.20;99.90
29551;DHT22;16488;52.396;10.696;2022-09-20T10:56:46;13.40;99.90
29551;DHT22;16488;52.396;10.696;2022-09-20T11:07:34;13.50;99.90
29551;DHT22;16488;52.396;10.696;2022-09-20T11:10:21;13.50;99.90
29551;DHT22;16488;52.396;10.696;2022-09-20T11:12:53;13.60;99.90
29551;DHT22;16488;52.396;10.696;2022-09-20T11:15:24;13.70;99.90
29551;DHT22;16488;52.396;10.696;2022-09-20T11:20:43;13.60;99.90
29551;DHT22;16488;52.396;10.696;2022-09-20T11:23:20;13.60;99.90
29551;DHT22;16488;52.396;10.696;2022-09-20T11:25:57;13.80;99.90
29551;DHT22;16488;52.396;10.696;2022-09-20T11:28:41;13.90;99.90
29551;DHT22;16488;52.396;10.696;2022-09-20T11:31:32;14.40;99.90
29551;DHT22;16488;52.396;10.696;2022-09-20T11:34:09;15.10;99.90
29551;DHT22;16488;52.396;10.696;2022-09-20T11:36:44;15.50;99.90
29551;DHT22;16488;52.396;10.696;2022-09-20T11:41:54;15.30;99.90
29551;DHT22;16488;52.396;10.696;2022-09-20T11:44:20;15.50;99.90
29551;DHT22;16488;52.396;10.696;2022-09-20T11:46:56;16.10;99.90
29551;DHT22;16488;52.396;10.696;2022-09-20T11:58:07;16.20;99.90
29551;DHT22;16488;52.396;10.696;2022-09-20T12:00:35;16.00;99.90
29551;DHT22;16488;52.396;10.696;2022-09-20T12:03:05;15.90;99.90
29551;DHT22;16488;52.396;10.696;2022-09-20T12:05:39;15.60;99.90
29551;DHT22;16488;52.396;10.696;2022-09-20T12:08:25;15.70;99.90
29551;DHT22;16488;52.396;10.696;2022-09-20T12:11:01;15.50;99.90
29551;DHT22;16488;52.396;10.696;2022-09-20T12:13:30;15.40;99.90
29551;DHT22;16488;52.396;10.696;2022-09-20T12:16:02;15.30;99.90
29551;DHT22;16488;52.396;10.696;2022-09-20T12:18:45;15.30;99.90
29551;DHT22;16488;52.396;10.696;2022-09-20T12:21:15;15.20;99.90
29551;DHT22;16488;52.396;10.696;2022-09-20T12:23:46;14.90;99.90
29551;DHT22;16488;52.396;10.696;2022-09-20T12:26:37;14.70;99.90
29551;DHT22;16488;52.396;10.696;2022-09-20T12:31:51;14.40;99.90
29551;DHT22;16488;52.396;10.696;2022-09-20T12:39:22;14.40;99.90
29551;DHT22;16488;52.396;10.696;2022-09-20T12:46:59;15.20;99.90
29551;DHT22;16488;52.396;10.696;2022-09-20T12:58:25;15.50;99.90
29551;DHT22;16488;52.396;10.696;2022-09-20T13:03:44;15.30;99.90
29551;DHT22;16488;52.396;10.696;2022-09-20T13:11:49;15.30;99.90
29551;DHT22;16488;52.396;10.696;2022-09-20T13:14:30;15.50;99.90
29551;DHT22;16488;52.396;10.696;2022-09-20T13:19:37;15.60;99.90
29551;DHT22;16488;52.396;10.696;2022-09-20T13:24:40;15.30;99.90
29551;DHT22;16488;52.396;10.696;2022-09-20T13:27:36;15.10;99.90
29551;DHT22;16488;52.396;10.696;2022-09-20T13:30:13;14.80;99.90
29551;DHT22;16488;52.396;10.696;2022-09-20T13:32:42;14.50;99.90
29551;DHT22;16488;52.396;10.696;2022-09-20T13:37:39;13.90;99.90
29551;DHT22;16488;52.396;10.696;2022-09-20T13:40:16;13.50;99.90
29551;DHT22;16488;52.396;10.696;2022-09-20T13:42:42;13.00;99.90
29551;DHT22;16488;52.396;10.696;2022-09-20T13:45:11;12.90;99.90
29551;DHT22;16488;52.396;10.696;2022-09-20T13:47:41;12.70;99.90
29551;DHT22;16488;52.396;10.696;2022-09-20T13:50:22;12.70;99.90
29551;DHT22;16488;52.396;10.696;2022-09-20T13:52:54;12.70;99.90
29551;DHT22;16488;52.396;10.696;2022-09-20T13:55:29;12.60;99.90
29551;DHT22;16488;52.396;10.696;2022-09-20T13:57:58;12.60;99.90
29551;DHT22;16488;52.396;10.696;2022-09-20T14:00:24;12.40;99.90
29551;DHT22;16488;52.396;10.696;2022-09-20T14:02:51;12.30;99.90
29551;DHT22;16488;52.396;10.696;2022-09-20T14:05:22;12.30;99.90
29551;DHT22;16488;52.396;10.696;2022-09-20T14:07:49;12.30;99.90
29551;DHT22;16488;52.396;10.696;2022-09-20T14:10:29;12.20;99.90
29551;DHT22;16488;52.396;10.696;2022-09-20T14:12:57;12.10;99.90
29551;DHT22;16488;52.396;10.696;2022-09-20T14:15:24;12.00;99.90
29551;DHT22;16488;52.396;10.696;2022-09-20T14:17:51;11.90;99.90
29551;DHT22;16488;52.396;10.696;2022-09-20T14:20:18;11.80;99.90
29551;DHT22;16488;52.396;10.696;2022-09-20T14:22:44;11.80;99.90
29551;DHT22;16488;52.396;10.696;2022-09-20T14:27:39;11.60;99.90
29551;DHT22;16488;52.396;10.696;2022-09-20T14:30:25;11.50;99.90
29551;DHT22;16488;52.396;10.696;2022-09-20T14:32:53;11.20;99.90
29551;DHT22;16488;52.396;10.696;2022-09-20T14:35:21;11.10;99.90
29551;DHT22;16488;52.396;10.696;2022-09-20T14:37:52;11.10;99.90
29551;DHT22;16488;52.396;10.696;2022-09-20T14:40:30;11.10;99.90
29551;DHT22;16488;52.396;10.696;2022-09-20T14:42:58;11.10;99.90
29551;DHT22;16488;52.396;10.696;2022-09-20T14:45:37;11.20;99.90
29551;DHT22;16488;52.396;10.696;2022-09-20T14:48:06;11.30;99.90
29551;DHT22;16488;52.396;10.696;2022-09-20T14:56:34;11.70;99.90
29551;DHT22;16488;52.396;10.696;2022-09-20T14:59:22;11.70;99.90
29551;DHT22;16488;52.396;10.696;2022-09-20T15:04:27;11.70;99.90
29551;DHT22;16488;52.396;10.696;2022-09-20T15:06:54;11.70;99.90
29551;DHT22;16488;52.396;10.696;2022-09-20T15:09:20;11.70;99.90
29551;DHT22;16488;52.396;10.696;2022-09-20T15:11:57;11.60;99.90
29551;DHT22;16488;52.396;10.696;2022-09-20T15:14:23;11.60;99.90
29551;DHT22;16488;52.396;10.696;2022-09-20T15:16:48;11.70;99.90
29551;DHT22;16488;52.396;10.696;2022-09-20T15:19:14;11.70;99.90
29551;DHT22;16488;52.396;10.696;2022-09-20T15:21:39;11.80;99.90
29551;DHT22;16488;52.396;10.696;2022-09-20T15:24:05;11.80;99.90
29551;DHT22;16488;52.396;10.696;2022-09-20T15:26:30;11.80;99.90
29551;DHT22;16488;52.396;10.696;2022-09-20T15:28:57;11.70;99.90
29551;DHT22;16488;52.396;10.696;2022-09-20T15:31:22;11.70;99.90
29551;DHT22;16488;52.396;10.696;2022-09-20T15:33:48;11.70;99.90
29551;DHT22;16488;52.396;10.696;2022-09-20T15:36:13;11.70;99.90
29551;DHT22;16488;52.396;10.696;2022-09-20T15:38:39;11.70;99.90
29551;DHT22;16488;52.396;10.696;2022-09-20T15:41:05;11.60;99.90
29551;DHT22;16488;52.396;10.696;2022-09-20T15:43:31;11.70;99.90
29551;DHT22;16488;52.396;10.696;2022-09-20T15:46:21;11.80;99.90
29551;DHT22;16488;52.396;10.696;2022-09-20T15:48:47;11.90;99.90
29551;DHT22;16488;52.396;10.696;2022-09-20T15:51:14;12.00;99.90
29551;DHT22;16488;52.396;10.696;2022-09-20T15:53:43;12.00;99.90
29551;DHT22;16488;52.396;10.696;2022-09-20T15:56:20;12.00;99.90
29551;DHT22;16488;52.396;10.696;2022-09-20T15:58:49;12.10;99.90
29551;DHT22;16488;52.396;10.696;2022-09-20T16:01:15;12.10;99.90
29551;DHT22;16488;52.396;10.696;2022-09-20T16:03:42;12.20;99.90
29551;DHT22;16488;52.396;10.696;2022-09-20T16:06:09;12.20;99.90
29551;DHT22;16488;52.396;10.696;2022-09-20T16:08:36;12.20;99.90
29551;DHT22;16488;52.396;10.696;2022-09-20T16:11:03;12.20;99.90
29551;DHT22;16488;52.396;10.696;2022-09-20T16:13:29;12.30;99.90
29551;DHT22;16488;52.396;10.696;2022-09-20T16:15:56;12.30;99.90
29551;DHT22;16488;52.396;10.696;2022-09-20T16:18:22;12.30;99.90
29551;DHT22;16488;52.396;10.696;2022-09-20T16:21:08;12.40;99.90
29551;DHT22;16488;52.396;10.696;2022-09-20T16:23:35;12.40;99.90
29551;DHT22;16488;52.396;10.696;2022-09-20T16:26:04;12.50;99.90
29551;DHT22;16488;52.396;10.696;2022-09-20T16:28:29;12.50;99.90
29551;DHT22;16488;52.396;10.696;2022-09-20T16:30:56;12.40;99.90
29551;DHT22;16488;52.396;10.696;2022-09-20T16:33:21;12.50;99.90
29551;DHT22;16488;52.396;10.696;2022-09-20T16:35:47;12.50;99.90
29551;DHT22;16488;52.396;10.696;2022-09-20T16:38:13;12.50;99.90
29551;DHT22;16488;52.396;10.696;2022-09-20T16:40:39;12.50;99.90
29551;DHT22;16488;52.396;10.696;2022-09-20T16:43:05;12.50;99.90
29551;DHT22;16488;52.396;10.696;2022-09-20T16:45:33;12.50;99.90
29551;DHT22;16488;52.396;10.696;2022-09-20T16:47:59;12.50;99.90
29551;DHT22;16488;52.396;10.696;2022-09-20T16:50:25;12.40;99.90
29551;DHT22;16488;52.396;10.696;2022-09-20T16:52:51;12.40;99.90
29551;DHT22;16488;52.396;10.696;2022-09-20T16:55:17;12.40;99.90
29551;DHT22;16488;52.396;10.696;2022-09-20T16:57:47;12.30;99.90
29551;DHT22;16488;52.396;10.696;2022-09-20T17:00:13;12.30;99.90
29551;DHT22;16488;52.396;10.696;2022-09-20T17:02:41;12.30;99.90
29551;DHT22;16488;52.396;10.696;2022-09-20T17:05:06;12.30;99.90
29551;DHT22;16488;52.396;10.696;2022-09-20T17:07:33;12.40;99.90
29551;DHT22;16488;52.396;10.696;2022-09-20T17:09:58;12.30;99.90
29551;DHT22;16488;52.396;10.696;2022-09-20T17:12:27;12.30;99.90
29551;DHT22;16488;52.396;10.696;2022-09-20T17:14:58;12.30;99.90
29551;DHT22;16488;52.396;10.696;2022-09-20T17:17:23;12.20;99.90
29551;DHT22;16488;52.396;10.696;2022-09-20T17:19:49;12.00;99.90
29551;DHT22;16488;52.396;10.696;2022-09-20T17:22:14;11.90;99.90
29551;DHT22;16488;52.396;10.696;2022-09-20T17:24:40;11.90;99.90
29551;DHT22;16488;52.396;10.696;2022-09-20T17:27:06;11.70;99.90
29551;DHT22;16488;52.396;10.696;2022-09-20T17:29:31;11.60;99.90
29551;DHT22;16488;52.396;10.696;2022-09-20T17:31:57;11.60;99.90
29551;DHT22;16488;52.396;10.696;2022-09-20T17:34:24;11.60;99.90
29551;DHT22;16488;52.396;10.696;2022-09-20T17:36:51;11.50;99.90
29551;DHT22;16488;52.396;10.696;2022-09-20T17:39:18;11.50;99.90
29551;DHT22;16488;52.396;10.696;2022-09-20T17:41:48;11.40;99.90
29551;DHT22;16488;52.396;10.696;2022-09-20T17:44:15;11.40;99.90
29551;DHT22;16488;52.396;10.696;2022-09-20T17:46:42;11.30;99.90
29551;DHT22;16488;52.396;10.696;2022-09-20T17:49:11;11.30;99.90
29551;DHT22;16488;52.396;10.696;2022-09-20T17:51:37;11.30;99.90
29551;DHT22;16488;52.396;10.696;2022-09-20T17:54:04;11.20;99.90
29551;DHT22;16488;52.396;10.696;2022-09-20T17:56:30;11.20;99.90
29551;DHT22;16488;52.396;10.696;2022-09-20T17:58:57;11.10;99.90
29551;DHT22;16488;52.396;10.696;2022-09-20T18:01:24;11.10;99.90
29551;DHT22;16488;52.396;10.696;2022-09-20T18:03:54;11.00;99.90
29551;DHT22;16488;52.396;10.696;2022-09-20T18:06:32;10.80;99.90
29551;DHT22;16488;52.396;10.696;2022-09-20T18:08:59;10.80;99.90
29551;DHT22;16488;52.396;10.696;2022-09-20T18:11:29;10.70;99.90
29551;DHT22;16488;52.396;10.696;2022-09-20T18:13:56;10.70;99.90
29551;DHT22;16488;52.396;10.696;2022-09-20T18:16:22;10.60;99.90
29551;DHT22;16488;52.396;10.696;2022-09-20T18:18:48;10.50;99.90
29551;DHT22;16488;52.396;10.696;2022-09-20T18:21:18;10.40;99.90
29551;DHT22;16488;52.396;10.696;2022-09-20T18:23:45;10.30;99.90
29551;DHT22;16488;52.396;10.696;2022-09-20T18:26:26;10.20;99.90
29551;DHT22;16488;52.396;10.696;2022-09-20T18:31:17;10.10;99.90
29551;DHT22;16488;52.396;10.696;2022-09-20T18:33:43;10.10;99.90
29551;DHT22;16488;52.396;10.696;2022-09-20T18:36:09;10.00;99.90
29551;DHT22;16488;52.396;10.696;2022-09-20T18:38:35;10.00;99.90
29551;DHT22;16488;52.396;10.696;2022-09-20T18:41:01;10.00;99.90
29551;DHT22;16488;52.396;10.696;2022-09-20T18:43:28;10.00;99.90
29551;DHT22;16488;52.396;10.696;2022-09-20T18:45:55;9.90;99.90
29551;DHT22;16488;52.396;10.696;2022-09-20T18:48:22;9.90;99.90
29551;DHT22;16488;52.396;10.696;2022-09-20T18:51:04;9.90;99.90
29551;DHT22;16488;52.396;10.696;2022-09-20T18:53:32;9.90;99.90
29551;DHT22;16488;52.396;10.696;2022-09-20T18:56:20;9.80;99.90
29551;DHT22;16488;52.396;10.696;2022-09-20T18:58:54;9.60;99.90
29551;DHT22;16488;52.396;10.696;2022-09-20T19:06:43;9.40;99.90
29551;DHT22;16488;52.396;10.696;2022-09-20T19:09:23;9.30;99.90
29551;DHT22;16488;52.396;10.696;2022-09-20T19:12:04;9.20;99.90
29551;DHT22;16488;52.396;10.696;2022-09-20T19:14:36;9.20;99.90
29551;DHT22;16488;52.396;10.696;2022-09-20T19:17:09;9.10;99.90
29551;DHT22;16488;52.396;10.696;2022-09-20T19:19:54;9.00;99.90
29551;DHT22;16488;52.396;10.696;2022-09-20T19:22:33;9.10;99.90
29551;DHT22;16488;52.396;10.696;2022-09-20T19:27:28;9.10;99.90
29551;DHT22;16488;52.396;10.696;2022-09-20T19:29:53;9.10;99.90
29551;DHT22;16488;52.396;10.696;2022-09-20T19:32:19;9.00;99.90
29551;DHT22;16488;52.396;10.696;2022-09-20T19:34:52;9.00;99.90
29551;DHT22;16488;52.396;10.696;2022-09-20T19:46:03;8.80;99.90
29551;DHT22;16488;52.396;10.696;2022-09-20T19:48:39;8.70;99.90
29551;DHT22;16488;52.396;10.696;2022-09-20T19:51:11;8.60;99.90
29551;DHT22;16488;52.396;10.696;2022-09-20T19:53:37;8.50;99.90
29551;DHT22;16488;52.396;10.696;2022-09-20T19:56:25;8.30;99.90
29551;DHT22;16488;52.396;10.696;2022-09-20T19:58:52;8.20;99.90
29551;DHT22;16488;52.396;10.696;2022-09-20T20:01:20;8.10;99.90
29551;DHT22;16488;52.396;10.696;2022-09-20T20:03:48;8.10;99.90
29551;DHT22;16488;52.396;10.696;2022-09-20T20:06:36;8.10;99.90
29551;DHT22;16488;52.396;10.696;2022-09-20T20:17:18;8.10;99.90
29551;DHT22;16488;52.396;10.696;2022-09-20T20:28:17;7.90;99.90
29551;DHT22;16488;52.396;10.696;2022-09-20T20:30:42;7.80;99.90
29551;DHT22;16488;52.396;10.696;2022-09-20T20:33:13;7.80;99.90
29551;DHT22;16488;52.396;10.696;2022-09-20T20:35:39;7.80;99.90
29551;DHT22;16488;52.396;10.696;2022-09-20T20:38:05;7.70;99.90
29551;DHT22;16488;52.396;10.696;2022-09-20T20:40:38;7.60;99.90
29551;DHT22;16488;52.396;10.696;2022-09-20T20:43:05;7.60;99.90
29551;DHT22;16488;52.396;10.696;2022-09-20T20:45:30;7.50;99.90
29551;DHT22;16488;52.396;10.696;2022-09-20T20:47:57;7.50;99.90
29551;DHT22;16488;52.396;10.696;2022-09-20T20:50:26;7.50;99.90
29551;DHT22;16488;52.396;10.696;2022-09-20T20:52:53;7.50;99.90